Detall de PIREP

Printer-friendly versionPDF version

[2012/02/29 09:28:00]
Flight IATA:CT3124
Pilot Number:011
Company ICAO:CAT
Aircraft Type:F28/A
PAX:85
Departing Airport: LFMP
Destination Airport: LEVC
Alternate Airport:LEPA
Online: VATSIM
Route:BGR UN975 BCN UM985 SOPET
Flight Level:F290
No Slew and time accel
No pause
Crash detect
Detect pilot in Cockpit between each 30 and 45 minutes
09:28 Zero fuel Weight: 60157 Lbs, Fuel Weight: 10273 Lbs
09:28 VATSIM:LFMP 290900Z VRB02KT CAVOK 12/M00 Q1023 NOSIG
09:28 VATSIM:LEVC 290900Z VRB01KT CAVOK 10/05 Q1024 NOSIG
09:29 Parking Brakes off
09:38 Take-off
09:38 Take off Weight: 69948 Lbs
09:38 Wind: 004º @ 001 Knots Heading: 148º
09:38 POS N42º 44´ 34´´ E002º 52´ 15´´
09:38 Gear Up: 149 Knots
09:38 Flaps:3 at 149 Knots
09:41 Flaps:4 at 162 Knots
09:41 Flaps:3 at 162 Knots
09:41 Flaps:2 at 162 Knots
09:41 Flaps:1 at 162 Knots
09:41 Flaps:0 at 167 Knots
09:53 Wind:337º@001 Knots Heading: 211º Ground Speed: 375 Knots Altitude 24573 ft
09:57 TOC
09:57 Fuel Weight: 7533 Lb
10:08 Wind:320º@010 Knots Heading: 228º Ground Speed: 440 Knots Altitude 29314 ft
10:08 TOD
10:08 Fuel Weight: 6626 Lb
10:23 Wind:226º@000 Knots Heading: 227º Ground Speed: 249 Knots Altitude 5019 ft
10:32 Flaps:1 at 218 Knots
10:32 Flaps:2 at 202 Knots
10:33 Flaps:3 at 186 Knots
10:35 Flaps:4 at 181 Knots
10:35 Gear Down: 179 Knots
10:36 Flaps:5 at 146 Knots
10:38 Wind:217º@000 Knots Heading: 116º Ground Speed: 135 Knots Altitude 1210 ft
10:39 TouchDown:Rate -192 ft/min Speed: 122 Knots
10:39 VATSIM:LEVC 291030Z VRB02KT CAVOK 14/07 Q1024 NOSIG
10:39 Land
10:39 Wind:217º@000 Knots
10:39 Heading: 116º
10:39 Flight Duration: 01:01
10:39 Landing Weight: 65254 Lbs
10:39 POS N39º 29´ 18´´ W000º 28´ 45´´
10:41 Parking brakes on
10:41 Block to Block Duration: 01:12
10:41 Final Fuel: 5006 Lbls
10:41 Spent Fuel: 5266 Lbls
10:41 Flight Length: 116 NM
10:41 TOD Land Length: 45 NM

Exportar CSV

Powered by Drupal - Modified by Danger4k